Time;durP1;ratioP1;P1;durP2;ratioP2;P2;SDS_P1;SDS_P2;PMS_P1;PMS_P2;Temp;Humidity;BMP_temperature;BMP_pressure;BME280_temperature;BME280_humidity;BME280_pressure;Samples;Min_cycle;Max_cycle;Signal;HPM_P1;HPM_P2
2022/04/05 00:02:16;;;;;;;7.47;0.60;;;;;;;3.96;55.28;100090.97;5047903;28;20083;-84
2022/04/05 00:04:42;;;;;;;21.13;2.42;;;;;;;4.01;55.20;100096.03;5039786;28;20399;-83
2022/04/05 00:07:07;;;;;;;14.00;0.75;;;;;;;3.95;55.46;100097.00;5029744;28;20033;-83
2022/04/05 00:09:33;;;;;;;9.40;0.55;;;;;;;3.74;56.20;100093.22;5044192;28;20036;-82
2022/04/05 00:11:59;;;;;;;20.50;1.35;;;;;;;3.56;56.02;100088.47;5010677;28;20044;-79
2022/04/05 00:14:25;;;;;;;17.15;0.90;;;;;;;3.94;55.22;100090.16;5031939;28;20039;-82
2022/04/05 00:16:50;;;;;;;22.10;1.48;;;;;;;3.93;54.84;100091.03;5042940;28;20037;-82
2022/04/05 00:19:19;;;;;;;6.97;0.93;;;;;;;3.88;55.01;100094.63;5044578;28;20033;-81
2022/04/05 00:21:45;;;;;;;6.50;0.47;;;;;;;3.51;55.97;100098.91;5043130;28;20037;-82
2022/04/05 00:24:11;;;;;;;10.60;0.50;;;;;;;3.77;54.98;100100.06;5047068;28;20029;-82
2022/04/05 00:26:36;;;;;;;14.27;0.95;;;;;;;3.06;56.63;100098.19;5022157;28;20032;-82
2022/04/05 00:29:02;;;;;;;7.10;0.90;;;;;;;2.82;57.11;100131.34;5011760;28;20033;-81
2022/04/05 00:31:28;;;;;;;5.03;0.60;;;;;;;2.96;56.57;100113.03;5028269;28;20087;-82
2022/04/05 00:33:54;;;;;;;5.13;1.85;;;;;;;3.13;56.14;100126.41;5010050;28;20387;-81
2022/04/05 00:36:19;;;;;;;5.18;0.10;;;;;;;2.98;56.36;100116.44;5028719;28;20029;-82
2022/04/05 00:38:45;;;;;;;6.35;0.28;;;;;;;2.88;56.60;100113.16;5047491;28;20041;-83
2022/04/05 00:41:10;;;;;;;3.85;0.20;;;;;;;3.24;55.65;100123.59;5029305;28;20122;-83
2022/04/05 00:43:36;;;;;;;7.72;0.60;;;;;;;2.60;57.50;100115.47;5043664;28;20134;-81
2022/04/05 00:46:02;;;;;;;2.58;0.45;;;;;;;2.70;56.94;100106.63;5044850;28;20102;-80
2022/04/05 00:48:51;;;;;;;5.95;0.47;;;;;;;3.09;55.50;100108.44;5027679;28;20044;-80
2022/04/05 00:51:18;;;;;;;1.55;0.70;;;;;;;2.96;56.03;100107.88;5012619;28;20537;-83
2022/04/05 00:53:48;;;;;;;4.20;0.20;;;;;;;2.96;55.61;100107.88;5041909;28;20044;-82
2022/04/05 00:56:15;;;;;;;4.10;1.48;;;;;;;2.73;55.95;100114.34;5022444;28;20044;-83
2022/04/05 00:58:45;;;;;;;7.30;0.20;;;;;;;3.13;54.85;100110.06;5042507;28;20040;-81
2022/04/05 01:01:15;;;;;;;9.18;0.35;;;;;;;2.70;55.86;100111.81;5023187;28;20037;-82
2022/04/05 01:03:47;;;;;;;3.55;0.30;;;;;;;2.90;55.47;100108.81;5043626;28;20071;-80
2022/04/05 01:06:15;;;;;;;3.55;0.30;;;;;;;2.86;55.34;100106.34;5024227;28;20041;-82
2022/04/05 01:08:43;;;;;;;2.83;0.20;;;;;;;2.82;55.42;100117.59;5023247;28;20603;-82
2022/04/05 01:11:09;;;;;;;3.03;0.32;;;;;;;3.12;54.96;100122.16;5023925;28;20033;-81
2022/04/05 01:13:35;;;;;;;3.25;0.13;;;;;;;2.84;55.61;100128.75;5025333;28;20092;-81
2022/04/05 01:16:00;;;;;;;11.32;0.80;;;;;;;3.32;54.09;100126.06;5029120;28;20110;-81
2022/04/05 01:18:26;;;;;;;4.22;0.32;;;;;;;3.45;53.61;100122.34;5029676;28;20040;-81
2022/04/05 01:20:51;;;;;;;3.97;0.40;;;;;;;3.03;55.02;100127.50;5026835;28;20049;-82
2022/04/05 01:23:22;;;;;;;7.60;0.30;;;;;;;3.05;55.05;100136.06;5006435;28;20053;-83
2022/04/05 01:25:47;;;;;;;10.85;0.95;;;;;;;3.09;54.75;100134.25;5045252;28;20025;-81
2022/04/05 01:28:13;;;;;;;6.50;0.70;;;;;;;3.04;55.03;100139.50;5028087;28;20426;-82
2022/04/05 01:30:39;;;;;;;12.77;0.90;;;;;;;2.91;54.74;100140.66;5047014;28;20028;-82
2022/04/05 01:33:04;;;;;;;6.78;1.05;;;;;;;2.96;54.41;100146.59;5031174;28;20025;-81
2022/04/05 01:35:30;;;;;;;6.80;0.30;;;;;;;3.27;53.06;100141.63;5025751;28;20056;-83
2022/04/05 01:37:57;;;;;;;7.78;0.20;;;;;;;2.85;53.92;100140.78;5027503;28;20044;-82
2022/04/05 01:40:25;;;;;;;10.10;0.40;;;;;;;3.29;52.49;100141.63;5048001;28;20055;-80
2022/04/05 01:42:50;;;;;;;9.02;1.05;;;;;;;3.49;51.96;100148.94;5026474;28;20083;-80
2022/04/05 01:45:16;;;;;;;10.27;0.40;;;;;;;3.41;51.71;100154.28;5028357;28;20064;-82
2022/04/05 01:47:41;;;;;;;1.25;0.38;;;;;;;2.84;51.91;100151.97;5027006;28;20071;-81
2022/04/05 01:50:07;;;;;;;5.78;0.55;;;;;;;3.32;50.94;100159.66;5008082;28;20063;-83
2022/04/05 01:52:33;;;;;;;7.18;0.20;;;;;;;3.05;51.45;100154.13;5030880;28;20143;-83
2022/04/05 01:54:58;;;;;;;4.20;0.57;;;;;;;2.91;52.04;100157.00;5009277;28;20036;-80
2022/04/05 01:57:24;;;;;;;1.45;0.10;;;;;;;3.20;51.03;100152.97;5041613;28;20046;-80
2022/04/05 01:59:50;;;;;;;1.92;0.20;;;;;;;3.11;51.16;100159.19;5018811;28;20163;-81
2022/04/05 02:02:15;;;;;;;8.40;0.10;;;;;;;3.00;51.25;100166.28;5043433;28;20031;-83
2022/04/05 02:04:41;;;;;;;8.88;0.30;;;;;;;3.00;51.75;100161.09;5025682;28;20120;-82
2022/04/05 02:07:10;;;;;;;3.25;0.30;;;;;;;2.90;51.84;100159.59;5029649;28;20033;-82
2022/04/05 02:09:35;;;;;;;2.55;0.10;;;;;;;2.62;52.93;100161.84;5031469;28;20056;-83
2022/04/05 02:12:02;;;;;;;6.15;0.63;;;;;;;2.83;52.37;100163.19;5009484;28;20099;-81
2022/04/05 02:14:46;;;;;;;3.00;0.20;;;;;;;2.96;51.84;100167.25;5047271;28;20165;-81
2022/04/05 02:17:19;;;;;;;8.32;0.52;;;;;;;2.97;52.09;100174.09;5028148;28;20115;-81
2022/04/05 02:19:46;;;;;;;5.63;0.20;;;;;;;3.14;51.53;100163.44;5048823;28;20087;-81
2022/04/05 02:22:15;;;;;;;9.38;0.30;;;;;;;3.19;51.41;100162.44;5045355;28;20052;-81
2022/04/05 02:24:41;;;;;;;8.68;0.35;;;;;;;3.24;51.70;100174.41;5032129;28;20043;-81
2022/04/05 02:27:07;;;;;;;8.25;0.52;;;;;;;3.24;51.27;100174.41;5008428;28;20092;-82
2022/04/05 02:29:36;;;;;;;1.85;0.10;;;;;;;3.43;51.27;100170.59;5051109;28;20127;-81
2022/04/05 02:32:08;;;;;;;3.67;0.30;;;;;;;3.45;51.24;100179.16;5031874;28;20041;-82
2022/04/05 02:34:35;;;;;;;13.32;1.08;;;;;;;3.39;51.63;100179.28;5029185;28;20467;-81
2022/04/05 02:37:02;;;;;;;0.85;0.20;;;;;;;3.19;51.99;100177.94;5026931;28;20105;-80
2022/04/05 02:39:27;;;;;;;5.05;0.22;;;;;;;3.35;51.63;100182.81;5026795;28;20119;-82
2022/04/05 02:41:57;;;;;;;5.15;0.50;;;;;;;3.61;51.02;100184.84;5015210;28;20427;-82
2022/04/05 02:44:23;;;;;;;11.15;1.25;;;;;;;3.21;51.88;100184.81;5033196;28;20029;-80
2022/04/05 02:46:55;;;;;;;11.45;0.73;;;;;;;3.18;52.40;100186.59;5044500;28;20037;-83
2022/04/05 02:49:22;;;;;;;4.40;0.55;;;;;;;3.03;52.53;100186.03;5044931;28;20068;-79
2022/04/05 02:51:48;;;;;;;2.28;0.17;;;;;;;3.01;52.31;100187.81;5025694;28;20040;-80
2022/04/05 02:54:21;;;;;;;5.32;0.22;;;;;;;3.12;51.63;100181.53;5029708;28;20061;-83
2022/04/05 02:56:49;;;;;;;7.93;0.80;;;;;;;3.10;51.09;100188.47;5044063;28;20032;-81
2022/04/05 02:59:16;;;;;;;6.18;0.63;;;;;;;2.94;51.59;100189.66;5046239;28;20034;-81
2022/04/05 03:01:44;;;;;;;3.60;0.50;;;;;;;3.00;51.21;100196.41;5044164;28;20037;-80
2022/04/05 03:04:12;;;;;;;5.22;0.47;;;;;;;2.67;52.02;100183.28;5045118;28;20131;-78
2022/04/05 03:06:39;;;;;;;9.88;0.73;;;;;;;2.95;51.64;100187.00;5029442;28;20111;-82
2022/04/05 03:09:06;;;;;;;9.93;0.30;;;;;;;3.17;51.44;100192.59;5028223;28;20040;-79
2022/04/05 03:11:33;;;;;;;8.00;0.15;;;;;;;3.29;50.63;100193.28;5012756;28;20029;-81
2022/04/05 03:13:58;;;;;;;8.77;0.75;;;;;;;3.21;51.61;100190.81;5047517;28;20067;-82
2022/04/05 03:16:26;;;;;;;4.47;0.65;;;;;;;3.31;51.18;100201.84;5047105;28;20482;-82
2022/04/05 03:18:53;;;;;;;1.77;0.20;;;;;;;3.02;52.41;100198.06;5045210;28;20044;-81
2022/04/05 03:21:20;;;;;;;5.20;0.75;;;;;;;3.27;51.80;100189.84;5028325;28;20036;-82
2022/04/05 03:23:46;;;;;;;6.35;1.23;;;;;;;3.37;51.48;100202.56;5031040;28;20525;-81
2022/04/05 03:26:11;;;;;;;4.97;0.30;;;;;;;3.22;51.86;100210.59;5034008;28;20033;-81
2022/04/05 03:28:38;;;;;;;7.25;0.35;;;;;;;2.92;52.42;100212.06;5030289;28;20036;-82
2022/04/05 03:31:04;;;;;;;8.65;0.50;;;;;;;3.43;51.19;100201.59;5014295;28;20415;-81
2022/04/05 03:33:30;;;;;;;5.07;0.25;;;;;;;3.48;50.92;100197.19;5029113;28;20033;-83
2022/04/05 03:35:58;;;;;;;8.82;0.43;;;;;;;3.55;50.33;100205.66;5026112;28;20033;-80
2022/04/05 03:38:26;;;;;;;3.13;0.20;;;;;;;3.29;51.14;100214.81;5021777;28;20033;-78
2022/04/05 03:40:53;;;;;;;8.25;0.20;;;;;;;3.44;50.40;100212.78;5027420;28;20033;-82
2022/04/05 03:43:19;;;;;;;5.25;0.52;;;;;;;3.21;51.14;100215.81;5024297;28;20057;-81
2022/04/05 03:45:49;;;;;;;6.70;0.50;;;;;;;3.35;50.67;100213.81;5025337;28;20044;-83
2022/04/05 03:48:16;;;;;;;4.28;0.52;;;;;;;3.37;50.54;100217.22;5050133;28;20047;-82
2022/04/05 03:50:43;;;;;;;6.05;1.40;;;;;;;3.38;50.63;100218.91;5029093;28;20061;-81
2022/04/05 03:53:10;;;;;;;6.57;0.15;;;;;;;3.34;50.81;100227.63;5028239;28;20033;-83
2022/04/05 03:55:37;;;;;;;7.97;0.73;;;;;;;3.17;50.97;100231.34;5045992;28;20394;-82
2022/04/05 03:58:05;;;;;;;7.80;0.85;;;;;;;3.38;50.57;100230.13;5032728;28;20104;-83
2022/04/05 04:00:31;;;;;;;11.20;0.50;;;;;;;3.36;50.78;100221.56;5030868;28;20119;-82
2022/04/05 04:03:06;;;;;;;4.85;0.40;;;;;;;3.23;51.15;100226.97;5035461;28;20048;-81
2022/04/05 04:05:32;;;;;;;7.60;0.20;;;;;;;3.44;50.37;100229.13;5029458;28;20037;-82
2022/04/05 04:07:59;;;;;;;7.53;0.70;;;;;;;3.43;50.72;100226.59;5007845;28;20028;-80
2022/04/05 04:10:26;;;;;;;5.43;0.40;;;;;;;3.50;50.32;100223.84;5029904;28;20017;-81
2022/04/05 04:12:56;;;;;;;4.97;0.32;;;;;;;3.58;49.94;100224.53;5028930;28;20028;-81
2022/04/05 04:15:24;;;;;;;3.67;0.30;;;;;;;3.62;50.07;100221.88;5024045;28;20029;-80
2022/04/05 04:17:51;;;;;;;8.77;0.52;;;;;;;3.55;50.12;100222.00;5045075;28;20051;-81
2022/04/05 04:20:19;;;;;;;8.55;1.52;;;;;;;3.58;50.49;100221.06;5026059;28;20860;-85
2022/04/05 04:22:44;;;;;;;8.10;0.28;;;;;;;3.47;50.25;100218.75;5026000;28;20033;-81
2022/04/05 04:25:10;;;;;;;7.88;0.65;;;;;;;3.45;50.27;100215.34;5043777;28;20028;-83
2022/04/05 04:27:36;;;;;;;5.78;0.35;;;;;;;3.33;50.63;100223.34;5025984;28;20033;-81
2022/04/05 04:30:03;;;;;;;4.43;0.50;;;;;;;3.19;50.76;100224.41;5028656;28;20128;-81
2022/04/05 04:32:29;;;;;;;9.82;0.52;;;;;;;3.47;50.10;100217.88;5044418;28;20052;-83
2022/04/05 04:34:54;;;;;;;6.88;0.40;;;;;;;3.09;50.97;100222.91;5022506;28;20812;-80
2022/04/05 04:37:20;;;;;;;9.02;0.57;;;;;;;3.44;50.11;100212.78;5045234;28;20087;-81
2022/04/05 04:39:46;;;;;;;3.38;0.20;;;;;;;3.63;49.71;100213.22;5044370;28;20028;-81
2022/04/05 04:42:12;;;;;;;6.40;1.70;;;;;;;3.68;49.53;100216.59;5027531;28;20056;-80
2022/04/05 04:44:38;;;;;;;8.25;0.30;;;;;;;3.54;49.96;100214.31;5027075;28;20040;-78
2022/04/05 04:47:04;;;;;;;10.23;0.68;;;;;;;3.47;50.24;100226.50;5004660;28;20033;-82
2022/04/05 04:49:29;;;;;;;5.82;0.40;;;;;;;3.55;50.10;100227.16;5047240;28;20067;-81
2022/04/05 04:51:55;;;;;;;15.57;0.70;;;;;;;3.59;50.14;100235.72;5025225;28;20032;-80
2022/04/05 04:54:20;;;;;;;4.70;0.22;;;;;;;3.61;49.93;100236.53;5027318;28;20515;-83
2022/04/05 04:56:46;;;;;;;4.30;0.38;;;;;;;3.72;49.84;100233.72;5026369;28;20039;-83
2022/04/05 04:59:11;;;;;;;5.47;0.60;;;;;;;3.54;50.72;100245.31;5028670;28;20029;-81
2022/04/05 05:01:37;;;;;;;9.13;0.40;;;;;;;3.54;50.40;100235.81;5042381;28;20111;-81
2022/04/05 05:04:02;;;;;;;10.18;0.88;;;;;;;3.66;50.09;100233.84;5042197;28;20128;-79
2022/04/05 05:06:28;;;;;;;8.98;0.82;;;;;;;3.23;51.64;100232.13;5025402;28;20124;-84
2022/04/05 05:08:53;;;;;;;2.95;0.30;;;;;;;3.59;50.49;100233.13;5044295;28;20079;-80
2022/04/05 05:11:19;;;;;;;4.30;0.73;;;;;;;3.42;50.46;100238.63;5006634;28;20039;-83
2022/04/05 05:13:44;;;;;;;7.95;0.10;;;;;;;3.49;50.38;100242.81;5040335;28;20029;-85
2022/04/05 05:16:10;;;;;;;5.13;0.47;;;;;;;3.15;50.97;100243.44;5028207;28;20033;-82
2022/04/05 05:18:37;;;;;;;8.68;0.30;;;;;;;3.55;49.90;100236.66;5043510;28;20487;-84
2022/04/05 05:21:03;;;;;;;9.13;1.35;;;;;;;3.59;49.82;100249.47;5032372;28;20037;-85
2022/04/05 05:23:29;;;;;;;13.48;0.25;;;;;;;3.64;49.87;100245.97;5046387;28;20110;-83
2022/04/05 05:25:55;;;;;;;6.78;0.43;;;;;;;3.72;49.37;100246.66;5043351;28;20032;-82
2022/04/05 05:28:21;;;;;;;6.35;0.40;;;;;;;3.64;49.41;100245.97;5044222;28;20139;-84
2022/04/05 05:30:46;;;;;;;7.10;0.28;;;;;;;3.78;49.03;100254.25;5039552;28;20132;-82
2022/04/05 05:33:12;;;;;;;8.00;0.73;;;;;;;3.51;49.65;100247.94;5046942;28;20032;-77
2022/04/05 05:35:38;;;;;;;4.25;0.47;;;;;;;3.50;49.78;100254.84;5030124;28;20039;-81
2022/04/05 05:38:04;;;;;;;8.93;0.95;;;;;;;3.82;49.30;100252.47;5007791;28;20298;-80
2022/04/05 05:40:30;;;;;;;8.20;0.30;;;;;;;3.92;48.93;100257.41;5042039;28;20040;-81
2022/04/05 05:43:01;;;;;;;9.75;0.70;;;;;;;4.22;48.71;100265.34;5025951;28;20049;-79
2022/04/05 05:45:29;;;;;;;2.08;0.47;;;;;;;4.25;48.52;100260.09;5006702;28;20033;-82
2022/04/05 05:47:54;;;;;;;9.45;0.60;;;;;;;4.35;48.42;100256.41;5042893;28;20116;-82
2022/04/05 05:50:21;;;;;;;8.95;0.20;;;;;;;4.61;47.90;100265.28;5025049;28;20123;-83
2022/04/05 05:52:52;;;;;;;3.55;0.20;;;;;;;4.57;47.57;100268.84;5025258;28;20033;-81
2022/04/05 05:55:19;;;;;;;9.88;0.40;;;;;;;4.25;48.04;100277.34;5042987;28;20605;-82
2022/04/05 05:57:45;;;;;;;11.00;0.45;;;;;;;4.58;47.69;100275.69;5041391;28;20033;-83
2022/04/05 06:00:17;;;;;;;3.67;0.95;;;;;;;4.64;47.79;100280.72;5034240;28;20090;-83
2022/04/05 06:02:44;;;;;;;12.77;1.45;;;;;;;4.67;47.88;100282.38;5034910;28;20476;-79
2022/04/05 06:05:11;;;;;;;5.20;0.52;;;;;;;4.70;47.45;100274.53;5043453;28;20036;-83
2022/04/05 06:07:37;;;;;;;8.88;0.85;;;;;;;4.68;47.82;100284.94;5043406;28;20045;-80
2022/04/05 06:10:04;;;;;;;6.03;0.38;;;;;;;4.88;47.53;100287.06;5045173;28;20036;-81
2022/04/05 06:12:30;;;;;;;7.88;0.85;;;;;;;4.81;47.44;100286.34;5027671;28;20099;-83
2022/04/05 06:14:56;;;;;;;13.63;1.33;;;;;;;5.09;46.64;100290.81;5027573;28;20033;-80
2022/04/05 06:17:21;;;;;;;6.75;0.40;;;;;;;5.44;46.10;100291.63;5042436;28;20117;-80
2022/04/05 06:19:47;;;;;;;8.23;0.43;;;;;;;5.65;46.33;100298.78;5040728;28;20041;-80
2022/04/05 06:22:13;;;;;;;12.20;0.77;;;;;;;5.97;45.17;100280.56;5022146;28;20032;-80
2022/04/05 06:24:39;;;;;;;8.55;0.85;;;;;;;6.04;44.76;100287.28;5038740;28;20040;-81
2022/04/05 06:27:08;;;;;;;3.03;0.40;;;;;;;5.76;45.02;100297.63;5024402;28;20403;-86
2022/04/05 06:29:33;;;;;;;9.00;0.40;;;;;;;5.73;45.69;100305.50;5022804;28;20262;-82
2022/04/05 06:32:00;;;;;;;7.90;0.32;;;;;;;5.59;45.74;100306.75;5019670;28;20037;-84
2022/04/05 06:34:26;;;;;;;7.60;0.45;;;;;;;5.54;45.70;100302.56;5019873;28;20032;-82
2022/04/05 06:36:53;;;;;;;10.82;0.73;;;;;;;5.86;46.21;100312.03;4974024;28;20196;-81
2022/04/05 06:39:19;;;;;;;9.70;0.70;;;;;;;6.42;45.43;100306.03;5043312;28;20028;-81
2022/04/05 06:41:46;;;;;;;9.68;0.98;;;;;;;6.43;44.04;100300.78;5044693;28;20136;-82
2022/04/05 06:44:21;;;;;;;8.15;0.35;;;;;;;5.98;45.10;100297.84;5023930;28;20090;-84
2022/04/05 06:46:50;;;;;;;7.00;0.30;;;;;;;5.94;45.68;100307.44;5013557;28;20028;-79
2022/04/05 06:49:15;;;;;;;7.63;0.50;;;;;;;6.08;45.89;100310.50;5038843;28;20443;-86
2022/04/05 06:51:41;;;;;;;3.83;0.30;;;;;;;5.76;45.87;100311.44;5025609;28;20432;-83
2022/04/05 06:54:07;;;;;;;4.78;0.73;;;;;;;5.81;45.55;100317.31;5028190;28;20434;-83
2022/04/05 06:56:33;;;;;;;9.52;0.88;;;;;;;5.61;46.63;100314.47;5009335;28;20032;-81
2022/04/05 06:58:58;;;;;;;8.57;0.55;;;;;;;5.85;45.76;100318.09;5041290;28;20045;-81
2022/04/05 07:01:24;;;;;;;2.88;0.30;;;;;;;5.84;45.45;100319.84;5046638;28;20028;-76
2022/04/05 07:03:50;;;;;;;21.05;1.52;;;;;;;6.50;45.23;100317.84;5046592;28;20045;-78
2022/04/05 07:06:15;;;;;;;5.88;0.40;;;;;;;7.87;42.40;100325.31;5021338;28;20032;-84
2022/04/05 07:08:41;;;;;;;5.63;0.57;;;;;;;8.42;40.20;100311.94;5026283;28;20041;-79
2022/04/05 07:11:07;;;;;;;17.33;1.13;;;;;;;8.02;41.35;100313.47;5027042;28;20458;-82
2022/04/05 07:13:33;;;;;;;5.85;0.50;;;;;;;7.38;42.18;100308.88;5015632;28;20037;-77
2022/04/05 07:15:59;;;;;;;7.30;0.88;;;;;;;6.98;43.29;100311.13;5028765;28;20021;-82
2022/04/05 07:18:25;;;;;;;11.40;0.60;;;;;;;7.06;43.50;100309.09;5023160;28;20388;-80
2022/04/05 07:20:52;;;;;;;10.35;0.95;;;;;;;6.94;42.74;100306.09;5004473;28;20279;-80
2022/04/05 07:23:17;;;;;;;8.00;0.65;;;;;;;6.98;42.93;100303.31;5016555;28;20140;-80
2022/04/05 07:25:43;;;;;;;9.80;0.80;;;;;;;6.90;43.23;100292.34;5040361;28;20676;-76
2022/04/05 07:28:09;;;;;;;11.75;2.20;;;;;;;6.57;42.82;100292.53;5039433;28;20044;-83
2022/04/05 07:30:35;;;;;;;5.47;0.40;;;;;;;6.69;42.95;100297.34;5025878;28;20029;-79
2022/04/05 07:33:00;;;;;;;10.82;0.52;;;;;;;6.89;42.97;100288.91;5041409;28;20056;-82
2022/04/05 07:35:26;;;;;;;13.75;0.60;;;;;;;7.12;42.84;100289.84;5027884;28;20033;-80
2022/04/05 07:37:52;;;;;;;8.10;0.70;;;;;;;7.44;41.87;100287.84;5020167;28;20052;-80
2022/04/05 07:40:18;;;;;;;8.32;0.88;;;;;;;7.19;42.48;100286.13;5025970;28;20059;-81
2022/04/05 07:42:45;;;;;;;16.15;1.27;;;;;;;6.69;43.50;100292.16;5024116;28;20045;-79
2022/04/05 07:45:12;;;;;;;7.25;0.63;;;;;;;6.43;43.54;100287.81;5030593;28;20462;-80
2022/04/05 07:47:39;;;;;;;5.78;0.52;;;;;;;6.41;44.52;100297.38;5039649;28;20558;-79
2022/04/05 07:50:06;;;;;;;13.73;0.47;;;;;;;6.12;45.05;100293.06;5029074;28;20033;-80
2022/04/05 07:52:32;;;;;;;10.05;0.40;;;;;;;6.47;44.87;100304.97;5038198;28;20120;-78
2022/04/05 07:54:59;;;;;;;3.45;0.45;;;;;;;6.12;45.40;100300.00;5042647;28;20089;-77
2022/04/05 07:57:24;;;;;;;10.65;0.80;;;;;;;5.91;45.44;100306.72;5009108;28;20040;-79
2022/04/05 07:59:50;;;;;;;5.38;0.65;;;;;;;6.03;44.99;100303.72;5027153;28;21465;-77
2022/04/05 08:02:16;;;;;;;6.95;0.70;;;;;;;5.89;45.47;100309.34;5024822;28;20044;-80
2022/04/05 08:04:42;;;;;;;10.50;1.80;;;;;;;5.89;46.15;100317.13;5022094;28;20037;-80
2022/04/05 08:07:07;;;;;;;5.90;0.73;;;;;;;5.90;46.61;100311.03;5026755;28;20405;-79
2022/04/05 08:09:33;;;;;;;10.75;1.27;;;;;;;5.95;46.56;100323.84;5028391;28;20781;-80
2022/04/05 08:11:59;;;;;;;4.70;0.35;;;;;;;5.28;48.42;100336.97;5010730;28;20037;-79
2022/04/05 08:14:28;;;;;;;5.68;0.28;;;;;;;4.89;49.77;100329.34;5045454;28;20029;-79
2022/04/05 08:16:57;;;;;;;5.07;0.28;;;;;;;4.20;52.07;100329.19;5021174;28;20041;-77
2022/04/05 08:19:24;;;;;;;13.07;0.57;;;;;;;4.75;51.75;100330.50;5027022;28;20043;-79
2022/04/05 08:21:49;;;;;;;2.63;0.10;;;;;;;4.85;51.54;100328.53;5020794;28;20122;-79
2022/04/05 08:24:15;;;;;;;7.82;0.30;;;;;;;5.18;51.74;100316.47;5024574;28;20096;-80
2022/04/05 08:26:40;;;;;;;2.90;1.00;;;;;;;5.21;51.06;100321.59;5025204;28;20138;-81
2022/04/05 08:29:06;;;;;;;4.32;0.30;;;;;;;5.45;50.79;100319.22;5001565;28;20039;-80
2022/04/05 08:31:31;;;;;;;4.88;0.28;;;;;;;5.65;51.17;100322.09;5025820;28;20035;-77
2022/04/05 08:33:57;;;;;;;8.25;0.50;;;;;;;5.92;51.63;100319.63;5021760;28;20511;-79
2022/04/05 08:36:22;;;;;;;8.43;0.45;;;;;;;6.25;49.48;100316.91;5028821;28;20043;-82
2022/04/05 08:38:48;;;;;;;5.47;0.90;;;;;;;6.50;48.85;100310.06;5043045;28;20191;-81
2022/04/05 08:41:18;;;;;;;5.50;0.57;;;;;;;6.63;48.25;100315.72;5018111;28;20032;-82
2022/04/05 08:43:43;;;;;;;5.30;0.93;;;;;;;7.00;47.97;100311.03;5038604;28;20041;-79
2022/04/05 08:46:10;;;;;;;8.75;1.05;;;;;;;7.36;47.14;100315.91;5047043;28;20039;-81
2022/04/05 08:48:37;;;;;;;11.18;0.77;;;;;;;7.33;46.72;100317.69;5042754;28;20723;-81
2022/04/05 08:51:03;;;;;;;6.00;0.73;;;;;;;6.99;46.88;100314.56;5023516;28;20033;-79
2022/04/05 08:53:31;;;;;;;7.35;0.68;;;;;;;7.32;46.37;100316.00;5011070;28;20117;-79
2022/04/05 08:55:57;;;;;;;15.70;2.15;;;;;;;7.47;46.42;100322.41;5037474;28;20029;-81
2022/04/05 08:58:23;;;;;;;8.40;2.03;;;;;;;7.59;46.14;100322.91;5024825;28;20095;-76
2022/04/05 09:00:51;;;;;;;10.98;2.33;;;;;;;7.02;44.25;100315.31;5035589;28;20037;-79
2022/04/05 09:03:17;;;;;;;6.38;1.67;;;;;;;7.06;45.59;100324.69;5021555;28;20037;-79
2022/04/05 09:05:44;;;;;;;9.00;1.92;;;;;;;6.49;46.21;100321.38;5036670;28;20106;-81
2022/04/05 09:08:16;;;;;;;10.55;1.25;;;;;;;6.50;46.29;100323.03;5027049;28;20053;-83
2022/04/05 09:10:43;;;;;;;10.70;1.30;;;;;;;6.13;46.45;100322.47;5005613;28;20252;-81
2022/04/05 09:13:11;;;;;;;8.25;2.50;;;;;;;5.78;47.15;100339.94;5042759;28;20037;-77
2022/04/05 09:15:37;;;;;;;11.05;2.80;;;;;;;6.09;46.95;100332.94;5039085;28;20037;-78
2022/04/05 09:18:04;;;;;;;4.90;0.43;;;;;;;5.98;46.89;100327.22;5038661;28;20062;-81
2022/04/05 09:20:30;;;;;;;6.53;0.75;;;;;;;5.17;47.96;100330.34;5007876;28;20509;-78
2022/04/05 09:22:57;;;;;;;5.70;0.35;;;;;;;5.22;48.02;100328.47;5002955;28;20044;-79
2022/04/05 09:25:23;;;;;;;4.45;0.20;;;;;;;5.70;48.12;100336.69;5040868;28;20044;-79
2022/04/05 09:27:54;;;;;;;1.80;0.40;;;;;;;5.40;48.41;100336.66;5019975;28;20037;-78
2022/04/05 09:30:23;;;;;;;3.90;0.20;;;;;;;5.34;48.83;100329.03;5023521;28;20115;-78
2022/04/05 09:32:51;;;;;;;4.57;0.22;;;;;;;5.75;49.17;100335.69;5037633;28;20057;-82
2022/04/05 09:35:20;;;;;;;5.70;0.30;;;;;;;6.56;47.60;100323.78;5024094;28;20098;-82
2022/04/05 09:37:47;;;;;;;4.75;0.28;;;;;;;6.84;47.29;100316.78;4998600;28;20128;-79
2022/04/05 09:40:34;;;;;;;4.70;0.50;;;;;;;7.16;47.76;100325.22;5019129;28;20607;-80
2022/04/05 09:43:00;;;;;;;8.07;0.50;;;;;;;7.06;46.19;100321.25;5018167;28;20446;-83
2022/04/05 09:45:47;;;;;;;8.50;0.40;;;;;;;6.83;46.35;100330.66;5038653;28;20091;-82
2022/04/05 09:48:18;;;;;;;4.65;0.65;;;;;;;6.61;46.32;100327.91;5040207;28;20036;-80
2022/04/05 09:51:06;;;;;;;8.43;0.20;;;;;;;6.36;47.40;100324.41;5001350;28;20347;-79
2022/04/05 09:53:34;;;;;;;6.35;0.65;;;;;;;6.45;47.53;100324.94;5043644;28;20065;-78
2022/04/05 09:56:30;;;;;;;7.18;0.35;;;;;;;6.45;47.45;100330.16;5043421;28;20044;-82
2022/04/05 09:59:02;;;;;;;10.18;0.47;;;;;;;6.45;47.29;100327.53;5024338;28;20044;-80
2022/04/05 10:01:29;;;;;;;8.68;0.47;;;;;;;6.62;47.85;100320.97;5041947;28;20505;-78
2022/04/05 10:04:08;;;;;;;9.43;0.85;;;;;;;6.55;49.09;100325.53;5020567;28;20037;-84
2022/04/05 10:06:39;;;;;;;9.25;0.63;;;;;;;6.30;48.84;100325.44;5026103;28;20438;-82
2022/04/05 10:09:06;;;;;;;4.80;0.20;;;;;;;6.74;47.65;100323.16;5026545;28;20048;-81
2022/04/05 10:11:33;;;;;;;4.47;0.38;;;;;;;6.63;48.27;100333.06;5042063;28;20032;-82
2022/04/05 10:13:59;;;;;;;2.55;0.30;;;;;;;6.71;47.36;100315.50;5020871;28;20083;-84
2022/04/05 10:16:27;;;;;;;11.07;0.13;;;;;;;6.91;46.95;100318.28;5024434;28;20038;-83
2022/04/05 10:18:57;;;;;;;3.22;0.50;;;;;;;7.02;46.81;100327.44;5014693;28;20366;-77
2022/04/05 10:21:25;;;;;;;8.02;0.93;;;;;;;7.45;47.19;100324.22;5037139;28;20040;-83
2022/04/05 10:23:53;;;;;;;8.23;0.50;;;;;;;7.30;46.90;100323.00;5043292;28;20061;-82
2022/04/05 10:26:20;;;;;;;5.35;0.70;;;;;;;7.47;46.76;100313.75;5041678;28;20116;-83
2022/04/05 10:28:49;;;;;;;5.35;0.40;;;;;;;7.44;46.67;100316.44;5025746;28;20120;-79
2022/04/05 10:31:23;;;;;;;2.78;0.30;;;;;;;7.04;46.99;100328.22;5015423;28;20118;-80
2022/04/05 10:34:02;;;;;;;6.88;0.70;;;;;;;6.46;47.34;100329.25;5027299;28;20028;-81
2022/04/05 10:36:28;;;;;;;3.05;0.57;;;;;;;6.75;48.13;100332.66;5029829;28;20525;-79
2022/04/05 10:39:18;;;;;;;1.58;0.32;;;;;;;6.64;48.13;100334.75;5036524;28;20071;-78
2022/04/05 10:42:04;;;;;;;4.18;0.68;;;;;;;6.82;48.40;100334.16;5033503;28;20039;-79
2022/04/05 10:44:30;;;;;;;2.55;0.20;;;;;;;7.43;47.74;100327.78;5040091;28;20025;-80
2022/04/05 10:47:01;;;;;;;6.88;0.40;;;;;;;7.21;47.73;100312.91;5034095;28;20044;-82
2022/04/05 10:49:51;;;;;;;5.53;0.30;;;;;;;7.37;47.44;100312.38;5015449;28;20032;-80
2022/04/05 10:52:32;;;;;;;1.83;0.20;;;;;;;7.34;48.11;100315.94;5000260;28;20059;-81
2022/04/05 10:55:01;;;;;;;5.05;0.82;;;;;;;7.14;47.02;100316.63;5040971;28;20040;-80
2022/04/05 10:57:37;;;;;;;11.70;0.95;;;;;;;7.33;46.53;100317.69;5045126;28;20032;-84
2022/04/05 11:00:11;;;;;;;3.85;0.22;;;;;;;7.33;46.37;100324.63;5010775;28;20037;-83
2022/04/05 11:02:43;;;;;;;6.68;0.30;;;;;;;7.52;46.82;100325.69;5029186;28;20036;-77
2022/04/05 11:05:12;;;;;;;;;;;;;;;7.19;46.53;100322.50;5031776;28;20812;-82
2022/04/05 11:07:58;;;;;;;6.53;0.70;;;;;;;7.00;46.18;100322.31;5025364;28;19920;-78
2022/04/05 11:10:44;;;;;;;4.40;0.25;;;;;;;7.03;45.75;100317.00;5042190;28;20056;-83
2022/04/05 11:13:20;;;;;;;1.35;0.13;;;;;;;7.54;46.47;100317.84;5009139;28;20129;-81
2022/04/05 11:15:46;;;;;;;4.68;0.13;;;;;;;7.87;45.85;100317.50;5040433;28;20029;-79
2022/04/05 11:18:13;;;;;;;2.85;0.10;;;;;;;7.42;44.63;100302.66;5042080;28;20040;-83
2022/04/05 11:20:44;;;;;;;1.35;0.20;;;;;;;7.56;46.01;100299.59;5025390;28;20413;-83
2022/04/05 11:23:11;;;;;;;5.25;0.82;;;;;;;7.70;45.77;100298.19;5024480;28;20037;-80
2022/04/05 11:25:37;;;;;;;3.60;0.30;;;;;;;7.95;45.24;100297.25;5039649;28;20028;-80
2022/04/05 11:28:19;;;;;;;3.78;0.40;;;;;;;8.09;45.51;100300.19;5023943;28;20064;-84
2022/04/05 11:30:46;;;;;;;4.65;0.10;;;;;;;8.25;44.85;100294.34;5041076;28;20043;-78
2022/04/05 11:33:20;;;;;;;3.78;0.10;;;;;;;8.02;45.63;100298.72;5044032;28;20052;-82
2022/04/05 11:35:50;;;;;;;3.42;0.32;;;;;;;7.35;46.44;100306.38;5038195;28;20029;-82